createdAt,value
2023-05-12T00:03:22.843Z,7.54
2023-05-12T00:08:25.889Z,7.45
2023-05-12T00:13:29.417Z,7.55
2023-05-12T00:18:32.389Z,7.69
2023-05-12T00:23:35.853Z,8.35
2023-05-12T00:28:39.302Z,8.66
2023-05-12T00:33:43.423Z,8.82
2023-05-12T00:38:46.444Z,8.54
2023-05-12T00:43:49.874Z,8.08
2023-05-12T00:48:53.636Z,7.92
2023-05-12T00:53:58.178Z,7.59
2023-05-12T00:59:01.480Z,7.60
2023-05-12T01:04:05.414Z,7.55
2023-05-12T01:09:09.542Z,7.48
2023-05-12T01:14:13.223Z,7.68
2023-05-12T01:19:24.637Z,7.75
2023-05-12T01:24:31.865Z,7.59
2023-05-12T01:29:36.812Z,7.58
2023-05-12T01:34:42.847Z,7.47
2023-05-12T01:39:46.416Z,7.27
2023-05-12T01:44:55.517Z,7.08
2023-05-12T01:50:00.126Z,6.99
2023-05-12T01:55:04.796Z,6.73
2023-05-12T02:00:14.951Z,6.55
2023-05-12T02:05:18.242Z,6.59
2023-05-12T02:10:24.973Z,6.51
2023-05-12T02:15:28.804Z,6.51
2023-05-12T02:20:32.844Z,6.63
2023-05-12T02:25:36.672Z,6.51
2023-05-12T02:30:45.211Z,6.41
2023-05-12T02:35:49.203Z,6.34
2023-05-12T02:40:52.425Z,6.26
2023-05-12T02:45:56.798Z,6.16
2023-05-12T02:51:00.423Z,5.94
2023-05-12T02:56:04.192Z,6.03
2023-05-12T03:01:11.229Z,6.03
2023-05-12T03:06:16.575Z,5.86
2023-05-12T03:11:20.164Z,5.77
2023-05-12T03:16:24.273Z,5.83
2023-05-12T03:21:28.802Z,5.70
2023-05-12T03:26:31.859Z,5.88
2023-05-12T03:31:35.948Z,6.11
2023-05-12T03:36:39.618Z,6.18
2023-05-12T03:41:43.781Z,6.27
2023-05-12T03:46:47.084Z,6.60
2023-05-12T03:51:50.669Z,6.77
2023-05-12T03:56:55.698Z,6.79
2023-05-12T04:01:59.142Z,6.81
2023-05-12T04:10:27.496Z,7.20
2023-05-12T04:15:31.065Z,7.35
2023-05-12T04:20:34.567Z,7.60
2023-05-12T04:25:42.881Z,7.82
2023-05-12T04:30:46.834Z,8.15
2023-05-12T04:35:56.812Z,8.61
2023-05-12T04:41:01.160Z,9.11
2023-05-12T04:46:06.068Z,9.45
2023-05-12T04:51:09.944Z,9.97
2023-05-12T04:56:13.860Z,10.52
2023-05-12T05:01:17.126Z,10.89
2023-05-12T05:06:21.396Z,11.04
2023-05-12T05:11:26.658Z,11.31
2023-05-12T05:16:30.775Z,11.77
2023-05-12T05:21:35.222Z,12.08
2023-05-12T05:26:38.729Z,12.19
2023-05-12T05:31:42.183Z,12.39
2023-05-12T05:36:46.285Z,12.61
2023-05-12T05:41:50.129Z,12.66
2023-05-12T05:46:53.650Z,12.82
2023-05-12T05:51:58.410Z,12.94
2023-05-12T05:57:03.452Z,13.01
2023-05-12T06:02:08.492Z,13.08
2023-05-12T06:07:13.770Z,12.72
2023-05-12T06:12:19.377Z,13.03
2023-05-12T06:17:22.669Z,13.24
2023-05-12T06:22:26.166Z,13.60
2023-05-12T06:27:29.790Z,13.47
2023-05-12T06:32:32.922Z,13.51
2023-05-12T06:37:36.837Z,13.78
2023-05-12T06:42:41.148Z,14.98
2023-05-12T06:47:46.281Z,16.62
2023-05-12T06:52:50.899Z,18.78
2023-05-12T06:57:56.292Z,18.74
2023-05-12T07:03:00.410Z,20.57
2023-05-12T07:08:03.680Z,19.75
2023-05-12T07:13:08.266Z,19.54
2023-05-12T07:18:11.975Z,19.67
2023-05-12T07:23:16.916Z,19.56
2023-05-12T07:28:20.668Z,19.67
2023-05-12T07:33:24.772Z,19.99
2023-05-12T07:38:29.180Z,19.69
2023-05-12T07:43:32.313Z,20.09
2023-05-12T07:48:40.580Z,20.35
2023-05-12T07:53:44.307Z,20.09
2023-05-12T07:58:48.027Z,21.55
2023-05-12T08:03:51.929Z,20.97
2023-05-12T08:08:58.525Z,20.52
2023-05-12T08:14:02.686Z,21.33
2023-05-12T08:19:07.106Z,21.87
2023-05-12T08:24:11.201Z,21.95
2023-05-12T08:29:16.031Z,21.80
2023-05-12T08:34:20.260Z,21.74
2023-05-12T08:39:23.602Z,21.07
2023-05-12T08:44:27.745Z,19.65
2023-05-12T08:49:33.429Z,18.84
2023-05-12T08:54:52.257Z,18.89
2023-05-12T09:00:01.475Z,18.91
2023-05-12T09:05:08.120Z,18.94
2023-05-12T09:10:33.614Z,18.00
2023-05-12T09:15:42.348Z,18.36
2023-05-12T09:20:45.982Z,18.53
2023-05-12T09:26:01.718Z,18.81
2023-05-12T09:31:26.318Z,18.63
2023-05-12T09:36:30.628Z,18.13
2023-05-12T09:41:38.773Z,17.94
2023-05-12T09:46:42.438Z,17.59
2023-05-12T09:51:45.553Z,17.71
2023-05-12T09:56:49.403Z,17.45
2023-05-12T10:01:54.321Z,17.98
2023-05-12T10:06:58.837Z,18.17
2023-05-12T10:12:04.595Z,18.48
2023-05-12T10:17:10.149Z,18.63
2023-05-12T10:22:17.211Z,18.33
2023-05-12T10:27:21.802Z,18.18
2023-05-12T10:32:27.294Z,18.50
2023-05-12T10:37:30.813Z,19.51
2023-05-12T10:42:43.727Z,19.18
2023-05-12T10:47:48.824Z,18.93
2023-05-12T10:52:56.871Z,18.15
2023-05-12T10:58:09.889Z,18.05
2023-05-12T11:03:18.478Z,18.56
2023-05-12T11:08:24.799Z,19.02
2023-05-12T11:13:29.962Z,19.33
2023-05-12T11:18:33.866Z,18.45
2023-05-12T11:23:37.288Z,17.57
2023-05-12T11:28:41.406Z,17.40
2023-05-12T11:33:44.982Z,17.09
2023-05-12T11:38:52.009Z,16.91
2023-05-12T11:43:55.580Z,16.73
2023-05-12T11:49:00.710Z,16.90
2023-05-12T11:54:07.494Z,17.10
2023-05-12T11:59:10.832Z,17.04
2023-05-12T12:04:15.028Z,16.82
2023-05-12T12:09:18.240Z,16.73
2023-05-12T12:14:22.406Z,16.15
2023-05-12T12:19:26.911Z,15.82
2023-05-12T12:24:31.363Z,15.55
2023-05-12T12:29:35.159Z,15.35
2023-05-12T12:34:38.725Z,15.17
2023-05-12T12:39:42.644Z,15.55
2023-05-12T12:44:48.551Z,15.55
2023-05-12T12:49:52.326Z,16.31
2023-05-12T12:54:55.569Z,18.63
2023-05-12T12:59:59.632Z,19.52
2023-05-12T13:05:04.483Z,20.09
2023-05-12T13:10:10.047Z,20.35
2023-05-12T13:15:13.808Z,20.63
2023-05-12T13:20:17.678Z,20.85
2023-05-12T13:25:21.630Z,21.59
2023-05-12T13:30:25.829Z,22.17
2023-05-12T13:35:30.267Z,21.41
2023-05-12T13:40:34.454Z,21.07
2023-05-12T13:45:38.475Z,19.87
2023-05-12T13:50:42.693Z,19.98
2023-05-12T13:55:46.145Z,20.37
2023-05-12T14:00:50.592Z,20.69
2023-05-12T14:05:54.486Z,20.14
2023-05-12T14:10:59.041Z,19.46
2023-05-12T14:16:02.684Z,18.48
2023-05-12T14:21:06.976Z,18.22
2023-05-12T14:26:10.700Z,18.03
2023-05-12T14:31:14.392Z,18.11
2023-05-12T14:36:18.232Z,17.69
2023-05-12T14:41:22.959Z,17.55
2023-05-12T14:46:27.139Z,17.55
2023-05-12T14:51:31.364Z,16.92
2023-05-12T14:56:35.589Z,16.76
2023-05-12T15:01:39.663Z,16.97
2023-05-12T15:06:43.287Z,17.39
2023-05-12T15:11:47.192Z,17.78
2023-05-12T15:16:51.246Z,18.06
2023-05-12T15:21:55.100Z,17.65
2023-05-12T15:26:58.872Z,17.48
2023-05-12T15:32:03.369Z,17.86
2023-05-12T15:37:07.185Z,18.08
2023-05-12T15:42:12.549Z,18.09
2023-05-12T15:47:18.466Z,17.97
2023-05-12T15:52:22.039Z,17.94
2023-05-12T15:57:26.053Z,17.88
2023-05-12T16:02:29.418Z,17.63
2023-05-12T16:07:33.057Z,17.14
2023-05-12T16:12:37.540Z,16.63
2023-05-12T16:17:41.239Z,16.30
2023-05-12T16:22:44.464Z,16.42
2023-05-12T16:27:48.298Z,16.16
2023-05-12T16:32:51.882Z,16.32
2023-05-12T16:37:56.028Z,16.07
2023-05-12T16:42:59.970Z,16.01
2023-05-12T16:48:04.598Z,15.96
2023-05-12T16:53:08.939Z,15.60
2023-05-12T16:58:12.579Z,15.53
2023-05-12T17:03:17.118Z,15.67
2023-05-12T17:08:21.198Z,15.47
2023-05-12T17:13:24.932Z,15.32
2023-05-12T17:18:28.811Z,15.10
2023-05-12T17:23:32.337Z,15.07
2023-05-12T17:28:36.098Z,14.95
2023-05-12T17:33:40.339Z,14.46
2023-05-12T17:38:44.138Z,14.49
2023-05-12T17:43:48.185Z,14.32
2023-05-12T17:48:52.156Z,14.12
2023-05-12T17:53:55.714Z,14.05
2023-05-12T17:58:58.854Z,13.87
2023-05-12T18:04:02.860Z,13.76
2023-05-12T18:09:07.166Z,13.63
2023-05-12T18:14:10.414Z,13.50
2023-05-12T18:19:14.058Z,13.36
2023-05-12T18:24:17.527Z,13.20
2023-05-12T18:29:21.125Z,13.18
2023-05-12T18:34:24.721Z,13.07
2023-05-12T18:39:28.950Z,13.07
2023-05-12T18:44:33.164Z,12.98
2023-05-12T18:49:37.746Z,12.84
2023-05-12T18:54:42.238Z,12.54
2023-05-12T18:59:46.064Z,12.50
2023-05-12T19:04:49.691Z,12.29
2023-05-12T19:09:53.871Z,12.38
2023-05-12T19:14:58.119Z,12.25
2023-05-12T19:20:02.046Z,12.19
2023-05-12T19:25:06.368Z,12.12
2023-05-12T19:30:10.343Z,12.07
2023-05-12T19:35:17.760Z,12.17
2023-05-12T19:40:20.972Z,12.21
2023-05-12T19:45:24.660Z,12.21
2023-05-12T19:50:29.708Z,12.22
2023-05-12T19:55:33.520Z,12.22
2023-05-12T20:00:39.424Z,12.32
2023-05-12T20:05:43.477Z,12.35
2023-05-12T20:10:46.841Z,12.30
2023-05-12T20:15:50.708Z,12.38
2023-05-12T20:20:55.235Z,12.31
2023-05-12T20:25:58.848Z,12.20
2023-05-12T20:31:02.958Z,12.12
2023-05-12T20:36:06.779Z,12.07
2023-05-12T20:41:10.979Z,11.94
2023-05-12T20:46:14.699Z,11.94
2023-05-12T20:51:18.807Z,11.76
2023-05-12T20:56:26.714Z,11.84
2023-05-12T21:01:30.470Z,11.71
2023-05-12T21:06:36.234Z,11.62
2023-05-12T21:11:39.401Z,11.58
2023-05-12T21:16:43.326Z,11.56
2023-05-12T21:21:47.368Z,11.49
2023-05-12T21:26:51.060Z,11.41
2023-05-12T21:31:54.711Z,11.24
2023-05-12T21:37:00.204Z,11.35
2023-05-12T21:42:04.245Z,11.32
2023-05-12T21:47:07.956Z,11.40
2023-05-12T21:52:13.338Z,11.37
2023-05-12T21:57:17.222Z,11.35
2023-05-12T22:02:21.243Z,11.42
2023-05-12T22:07:24.873Z,11.53
2023-05-12T22:12:28.600Z,11.65
2023-05-12T22:17:32.084Z,11.65
2023-05-12T22:22:35.701Z,11.86
2023-05-12T22:27:39.772Z,12.00
2023-05-12T22:32:42.908Z,12.20
2023-05-12T22:37:46.600Z,12.31
2023-05-12T22:42:50.235Z,12.39
2023-05-12T22:47:53.866Z,12.52
2023-05-12T22:52:58.410Z,12.48
2023-05-12T22:58:02.435Z,12.38
2023-05-12T23:03:07.558Z,12.37
2023-05-12T23:08:10.918Z,12.38
2023-05-12T23:13:14.520Z,12.26
2023-05-12T23:18:17.626Z,12.19
2023-05-12T23:23:21.410Z,12.05
2023-05-12T23:28:25.317Z,12.08
2023-05-12T23:33:29.042Z,12.14
2023-05-12T23:38:33.310Z,12.25
2023-05-12T23:43:37.699Z,12.25
2023-05-12T23:48:41.658Z,12.33
2023-05-12T23:53:45.826Z,12.63
2023-05-12T23:58:49.958Z,12.91
